createdAt,value
2019-01-18T00:02:24.685Z,64.46
2019-01-18T00:04:58.003Z,64.75
2019-01-18T00:07:31.065Z,65.45
2019-01-18T00:10:04.181Z,66.48
2019-01-18T00:12:37.469Z,66.94
2019-01-18T00:15:10.659Z,67.85
2019-01-18T00:17:56.822Z,67.48
2019-01-18T00:20:42.256Z,67.39
2019-01-18T00:23:29.023Z,67.59
2019-01-18T00:26:08.584Z,68.11
2019-01-18T00:28:41.340Z,68.51
2019-01-18T00:31:15.123Z,68.27
2019-01-18T00:33:48.184Z,68.08
2019-01-18T00:36:20.362Z,67.95
2019-01-18T00:38:53.602Z,68.94
2019-01-18T00:41:26.818Z,69.04
2019-01-18T00:43:59.930Z,68.66
2019-01-18T00:46:33.849Z,67.54
2019-01-18T00:49:07.899Z,67.34
2019-01-18T00:51:41.177Z,66.04
2019-01-18T00:54:14.459Z,66.07
2019-01-18T00:56:48.180Z,66.25
2019-01-18T00:59:21.545Z,67.54
2019-01-18T01:01:54.603Z,67.41
2019-01-18T01:04:27.285Z,66.97
2019-01-18T01:07:00.440Z,67.17
2019-01-18T01:09:32.450Z,68.16
2019-01-18T01:12:07.184Z,68.65
2019-01-18T01:14:40.746Z,68.69
2019-01-18T01:17:26.363Z,67.27
2019-01-18T01:20:09.308Z,66.38
2019-01-18T01:22:42.523Z,66.76
2019-01-18T01:25:15.560Z,68.43
2019-01-18T01:27:47.731Z,70.24
2019-01-18T01:30:22.427Z,70.01
2019-01-18T01:32:56.231Z,69.28
2019-01-18T01:35:29.641Z,68.48
2019-01-18T01:38:02.736Z,67.94
2019-01-18T01:40:34.514Z,67.38
2019-01-18T01:43:07.982Z,67.88
2019-01-18T01:45:41.075Z,67.60
2019-01-18T01:48:14.348Z,66.87
2019-01-18T01:50:47.531Z,66.23
2019-01-18T01:53:20.249Z,66.47
2019-01-18T01:55:53.529Z,67.17
2019-01-18T01:58:26.818Z,67.64
2019-01-18T02:01:00.222Z,67.15
2019-01-18T02:03:33.331Z,66.66
2019-01-18T02:06:07.125Z,66.64
2019-01-18T02:08:40.006Z,66.24
2019-01-18T02:11:12.687Z,66.78
2019-01-18T02:13:45.802Z,67.82
2019-01-18T02:16:18.950Z,67.56
2019-01-18T02:19:01.162Z,67.35
2019-01-18T02:21:34.334Z,66.69
2019-01-18T02:24:07.778Z,67.15
2019-01-18T02:26:41.987Z,67.17
2019-01-18T02:29:14.724Z,66.93
2019-01-18T02:31:47.739Z,67.22
2019-01-18T02:34:19.326Z,67.40
2019-01-18T02:36:52.591Z,66.89
2019-01-18T02:39:25.736Z,67.20
2019-01-18T02:41:59.000Z,67.93
2019-01-18T02:44:32.204Z,68.72
2019-01-18T02:47:05.193Z,68.15
2019-01-18T02:49:37.264Z,66.58
2019-01-18T02:52:09.784Z,65.87
2019-01-18T02:54:42.670Z,65.07
2019-01-18T02:57:16.118Z,64.87
2019-01-18T02:59:49.938Z,65.11
2019-01-18T03:02:23.036Z,64.67
2019-01-18T03:04:55.890Z,64.46
2019-01-18T03:07:29.032Z,64.54
2019-01-18T03:10:03.255Z,65.41
2019-01-18T03:12:36.278Z,65.93
2019-01-18T03:15:09.193Z,66.81
2019-01-18T03:17:53.544Z,67.70
2019-01-18T03:20:39.252Z,67.59
2019-01-18T03:23:19.639Z,67.24
2019-01-18T03:25:52.738Z,66.63
2019-01-18T03:28:26.286Z,66.25
2019-01-18T03:30:59.430Z,65.96
2019-01-18T03:33:32.566Z,65.77
2019-01-18T03:36:06.055Z,64.76
2019-01-18T03:38:40.177Z,64.10
2019-01-18T03:41:13.556Z,64.85
2019-01-18T03:43:47.703Z,64.41
2019-01-18T03:46:21.043Z,64.58
2019-01-18T03:48:54.448Z,65.94
2019-01-18T03:51:27.576Z,66.16
2019-01-18T03:54:01.545Z,66.16
2019-01-18T03:56:35.337Z,65.93
2019-01-18T03:59:09.335Z,66.68
2019-01-18T04:01:42.517Z,66.37
2019-01-18T04:04:16.701Z,65.78
2019-01-18T04:06:51.073Z,65.83
2019-01-18T04:09:24.283Z,65.62
2019-01-18T04:11:57.917Z,65.71
2019-01-18T04:14:31.203Z,65.32
2019-01-18T04:17:05.002Z,65.36
2019-01-18T04:19:39.825Z,64.94
2019-01-18T04:22:13.668Z,65.08
2019-01-18T04:24:47.613Z,65.63
2019-01-18T04:27:21.693Z,65.60
2019-01-18T04:29:56.115Z,65.23
2019-01-18T04:32:29.855Z,64.83
2019-01-18T04:35:03.959Z,65.41
2019-01-18T04:37:37.524Z,65.83
2019-01-18T04:40:22.353Z,66.01
2019-01-18T04:42:56.318Z,65.84
2019-01-18T04:45:30.358Z,65.98
2019-01-18T04:48:04.106Z,65.32
2019-01-18T04:50:37.991Z,65.30
2019-01-18T04:53:11.453Z,65.20
2019-01-18T04:55:45.418Z,65.27
2019-01-18T04:58:19.035Z,66.41
2019-01-18T05:00:52.629Z,66.56
2019-01-18T05:03:27.130Z,65.94
2019-01-18T05:06:01.049Z,66.53
2019-01-18T05:08:34.675Z,66.62
2019-01-18T05:11:09.090Z,67.02
2019-01-18T05:13:42.738Z,67.47
2019-01-18T05:16:16.315Z,67.03
2019-01-18T05:18:59.692Z,67.53
2019-01-18T05:21:36.421Z,69.87
2019-01-18T05:24:09.604Z,69.59
2019-01-18T05:26:43.400Z,69.59
2019-01-18T05:29:17.675Z,69.96
2019-01-18T05:31:51.259Z,71.73
2019-01-18T05:34:25.127Z,72.19
2019-01-18T05:36:58.994Z,72.48
2019-01-18T05:39:35.276Z,71.68
2019-01-18T05:42:09.488Z,70.65
2019-01-18T05:44:44.787Z,69.52
2019-01-18T05:47:19.607Z,69.26
2019-01-18T05:49:53.591Z,68.62
2019-01-18T05:52:29.141Z,68.17
2019-01-18T05:55:03.363Z,68.26
2019-01-18T05:57:37.510Z,67.96
2019-01-18T06:00:54.965Z,67.56
2019-01-18T06:03:22.545Z,66.94
2019-01-18T06:05:56.046Z,67.26
2019-01-18T06:08:29.235Z,66.98
2019-01-18T06:11:02.784Z,66.55
2019-01-18T06:13:37.653Z,66.19
2019-01-18T06:16:10.640Z,65.73
2019-01-18T06:18:56.685Z,64.96
2019-01-18T06:21:42.339Z,64.40
2019-01-18T06:24:25.967Z,64.47
2019-01-18T06:27:07.531Z,64.94
2019-01-18T06:29:40.822Z,64.72
2019-01-18T06:32:14.105Z,65.27
2019-01-18T06:34:47.391Z,65.18
2019-01-18T06:37:22.498Z,64.80
2019-01-18T06:39:56.809Z,64.53
2019-01-18T06:42:29.875Z,63.83
2019-01-18T06:45:02.759Z,62.78
2019-01-18T06:47:35.974Z,62.17
2019-01-18T06:50:12.645Z,62.29
2019-01-18T06:52:46.185Z,62.21
2019-01-18T06:55:19.513Z,62.20
2019-01-18T06:57:53.053Z,62.88
2019-01-18T07:00:31.208Z,63.24
2019-01-18T07:03:09.834Z,62.94
2019-01-18T07:05:43.389Z,61.94
2019-01-18T07:08:16.660Z,61.89
2019-01-18T07:10:50.245Z,63.33
2019-01-18T07:13:23.465Z,62.90
2019-01-18T07:15:56.551Z,61.99
2019-01-18T07:18:37.429Z,61.30
2019-01-18T07:21:10.151Z,61.13
2019-01-18T07:23:43.264Z,59.68
2019-01-18T07:26:17.168Z,59.37
2019-01-18T07:28:51.812Z,58.53
2019-01-18T07:31:25.340Z,57.40
2019-01-18T07:33:58.578Z,56.84
2019-01-18T07:36:31.859Z,56.36
2019-01-18T07:39:06.358Z,56.12
2019-01-18T07:41:39.674Z,54.91
2019-01-18T07:44:13.174Z,54.33
2019-01-18T07:46:48.793Z,53.24
2019-01-18T07:49:22.316Z,52.12
2019-01-18T07:51:55.906Z,51.33
2019-01-18T07:54:29.205Z,49.66
2019-01-18T07:57:01.509Z,49.52
2019-01-18T07:59:34.776Z,48.91
2019-01-18T08:02:08.452Z,47.21
2019-01-18T08:04:41.935Z,45.93
2019-01-18T08:07:15.162Z,45.86
2019-01-18T08:09:48.308Z,45.46
2019-01-18T08:12:21.545Z,45.25
2019-01-18T08:14:54.081Z,46.39
2019-01-18T08:17:27.730Z,47.67
2019-01-18T08:20:11.037Z,47.00
2019-01-18T08:22:44.380Z,47.00
2019-01-18T08:25:17.827Z,47.03
2019-01-18T08:27:51.748Z,47.17
2019-01-18T08:30:26.618Z,48.63
2019-01-18T08:33:00.031Z,49.51
2019-01-18T08:35:33.629Z,49.77
2019-01-18T08:38:07.128Z,50.42
2019-01-18T08:40:42.306Z,51.78
2019-01-18T08:43:17.250Z,53.27
2019-01-18T08:45:52.845Z,53.97
2019-01-18T08:48:26.574Z,55.11
2019-01-18T08:51:00.631Z,55.27
2019-01-18T08:53:33.784Z,55.44
2019-01-18T08:56:06.338Z,55.15
2019-01-18T08:58:39.488Z,55.31
2019-01-18T09:01:13.061Z,55.49
2019-01-18T09:03:46.800Z,55.55
2019-01-18T09:06:19.725Z,55.76
2019-01-18T09:08:53.420Z,55.11
2019-01-18T09:11:26.870Z,56.26
2019-01-18T09:14:00.175Z,55.54
2019-01-18T09:16:32.269Z,55.77
2019-01-18T09:19:06.473Z,55.63
2019-01-18T09:21:39.794Z,56.06
2019-01-18T09:24:13.313Z,55.27
2019-01-18T09:26:45.988Z,54.15
2019-01-18T09:29:19.206Z,53.21
2019-01-18T09:31:52.502Z,52.88
2019-01-18T09:34:24.737Z,52.34
2019-01-18T09:36:57.767Z,51.57
2019-01-18T09:39:31.167Z,51.46
2019-01-18T09:42:04.569Z,51.12
2019-01-18T09:44:38.289Z,49.45
2019-01-18T09:47:11.582Z,47.97
2019-01-18T09:49:45.127Z,47.80
2019-01-18T09:52:18.147Z,47.11
2019-01-18T09:54:51.764Z,47.10
2019-01-18T09:57:24.831Z,46.36
2019-01-18T09:59:58.221Z,45.68
2019-01-18T10:02:33.845Z,46.21
2019-01-18T10:05:08.185Z,45.97
2019-01-18T10:07:41.283Z,45.98
2019-01-18T10:10:16.778Z,45.45
2019-01-18T10:12:53.318Z,44.10
2019-01-18T10:15:32.669Z,43.73
2019-01-18T10:18:06.507Z,43.33
2019-01-18T10:20:49.027Z,42.51
2019-01-18T10:23:22.217Z,42.37
2019-01-18T10:25:56.732Z,43.31
2019-01-18T10:28:29.942Z,43.06
2019-01-18T10:31:02.425Z,42.66
2019-01-18T10:33:35.789Z,44.02
2019-01-18T10:36:07.883Z,44.69
2019-01-18T10:38:41.061Z,44.45
2019-01-18T10:41:13.378Z,44.33
2019-01-18T10:43:46.541Z,44.79
2019-01-18T10:46:19.984Z,44.47
2019-01-18T10:48:53.251Z,44.73
2019-01-18T10:51:27.078Z,43.91
2019-01-18T10:54:00.185Z,43.55
2019-01-18T10:56:36.357Z,44.39
2019-01-18T10:59:09.348Z,43.92
2019-01-18T11:01:42.788Z,43.37
2019-01-18T11:04:15.970Z,43.47
2019-01-18T11:06:49.611Z,42.44
2019-01-18T11:09:22.831Z,42.80
2019-01-18T11:11:55.125Z,42.30
2019-01-18T11:14:28.899Z,43.05
2019-01-18T11:17:01.925Z,43.35
2019-01-18T11:19:41.549Z,43.06
2019-01-18T11:22:16.262Z,43.32
2019-01-18T11:24:49.923Z,43.38
2019-01-18T11:27:23.781Z,43.13
2019-01-18T11:29:56.775Z,44.01
2019-01-18T11:32:30.319Z,43.74
2019-01-18T11:35:04.967Z,44.42
2019-01-18T11:37:38.162Z,44.58
2019-01-18T11:40:12.294Z,44.14
2019-01-18T11:42:46.103Z,43.59
2019-01-18T11:45:19.321Z,43.94
2019-01-18T11:47:51.865Z,45.01
2019-01-18T11:50:25.972Z,44.17
2019-01-18T11:52:59.862Z,44.24
2019-01-18T11:55:32.552Z,44.13
2019-01-18T11:58:05.911Z,44.98
2019-01-18T12:00:39.390Z,43.84
2019-01-18T12:03:13.839Z,43.69
2019-01-18T12:05:49.034Z,43.63
2019-01-18T12:08:22.693Z,43.58
2019-01-18T12:10:59.095Z,43.26
2019-01-18T12:13:32.711Z,43.05
2019-01-18T12:16:06.262Z,42.63
2019-01-18T12:18:40.861Z,42.43
2019-01-18T12:21:26.912Z,42.33
2019-01-18T12:24:04.823Z,42.17
2019-01-18T12:26:37.843Z,43.57
2019-01-18T12:29:10.842Z,43.56
2019-01-18T12:31:44.261Z,43.13
2019-01-18T12:34:16.609Z,44.04
2019-01-18T12:36:49.981Z,43.64
2019-01-18T12:39:22.266Z,44.36
2019-01-18T12:41:55.401Z,45.91
2019-01-18T12:44:28.857Z,45.99
2019-01-18T12:47:02.199Z,44.92
2019-01-18T12:49:36.347Z,44.63
2019-01-18T12:52:09.051Z,44.88
2019-01-18T12:54:42.079Z,44.53
2019-01-18T12:57:15.711Z,45.79
2019-01-18T12:59:49.093Z,44.54
2019-01-18T13:02:22.453Z,44.60
2019-01-18T13:04:55.823Z,45.78
2019-01-18T13:07:29.792Z,45.68
2019-01-18T13:10:03.635Z,45.25
2019-01-18T13:12:37.133Z,44.99
2019-01-18T13:15:20.801Z,44.53
2019-01-18T13:17:54.073Z,44.28
2019-01-18T13:20:27.542Z,44.69
2019-01-18T13:23:00.740Z,45.13
2019-01-18T13:25:34.089Z,44.95
2019-01-18T13:28:07.729Z,44.95
2019-01-18T13:30:40.930Z,45.16
2019-01-18T13:33:12.993Z,45.46
2019-01-18T13:35:46.041Z,45.91
2019-01-18T13:38:19.550Z,46.68
2019-01-18T13:40:52.250Z,46.98
2019-01-18T13:43:26.121Z,47.36
2019-01-18T13:45:59.105Z,47.78
2019-01-18T13:48:32.483Z,47.88
2019-01-18T13:51:06.487Z,48.35
2019-01-18T13:53:39.943Z,48.67
2019-01-18T13:56:12.627Z,48.49
2019-01-18T13:58:45.791Z,48.39
2019-01-18T14:01:19.105Z,48.14
2019-01-18T14:03:51.552Z,48.77
2019-01-18T14:06:25.728Z,49.10
2019-01-18T14:08:59.207Z,49.46
2019-01-18T14:11:32.971Z,49.87
2019-01-18T14:14:06.826Z,50.05
2019-01-18T14:16:40.170Z,50.25
2019-01-18T14:19:13.468Z,50.85
2019-01-18T14:21:56.410Z,51.68
2019-01-18T14:24:37.913Z,52.14
2019-01-18T14:27:11.406Z,51.86
2019-01-18T14:29:44.433Z,51.84
2019-01-18T14:32:17.581Z,53.13
2019-01-18T14:34:49.874Z,53.02
2019-01-18T14:37:24.643Z,53.56
2019-01-18T14:39:57.613Z,54.30
2019-01-18T14:42:31.315Z,54.42
2019-01-18T14:45:05.396Z,54.58
2019-01-18T14:47:38.985Z,54.81
2019-01-18T14:50:15.806Z,55.06
2019-01-18T14:52:49.837Z,54.95
2019-01-18T14:55:23.305Z,55.16
2019-01-18T14:57:58.018Z,55.25
2019-01-18T15:00:37.027Z,55.72
2019-01-18T15:03:10.378Z,55.62
2019-01-18T15:05:44.021Z,56.17
2019-01-18T15:08:17.309Z,55.75
2019-01-18T15:10:50.891Z,57.04
2019-01-18T15:13:25.480Z,57.55
2019-01-18T15:15:58.703Z,57.15
2019-01-18T15:18:31.365Z,58.04
2019-01-18T15:21:17.781Z,57.78
2019-01-18T15:24:03.654Z,57.42
2019-01-18T15:26:49.275Z,57.87
2019-01-18T15:29:34.837Z,58.10
2019-01-18T15:32:28.725Z,57.99
2019-01-18T15:35:14.701Z,58.02
2019-01-18T15:37:59.715Z,58.26
2019-01-18T15:40:47.688Z,58.43
2019-01-18T15:43:35.012Z,58.31
2019-01-18T15:46:09.850Z,58.22
2019-01-18T15:48:43.080Z,58.04
2019-01-18T15:51:15.887Z,58.04
2019-01-18T15:53:48.491Z,57.84
2019-01-18T15:56:23.171Z,58.29
2019-01-18T15:58:57.962Z,59.72
2019-01-18T16:01:31.665Z,59.22
2019-01-18T16:04:05.131Z,58.55
2019-01-18T16:06:38.973Z,58.29
2019-01-18T16:09:12.428Z,57.83
2019-01-18T16:11:46.093Z,57.54
2019-01-18T16:14:19.413Z,58.09
2019-01-18T16:16:54.614Z,57.95
2019-01-18T16:19:27.833Z,57.87
2019-01-18T16:22:08.737Z,57.85
2019-01-18T16:24:42.398Z,58.69
2019-01-18T16:27:15.566Z,58.02
2019-01-18T16:29:48.652Z,58.74
2019-01-18T16:32:22.397Z,58.24
2019-01-18T16:34:55.179Z,58.24
2019-01-18T16:37:28.885Z,58.86
2019-01-18T16:40:02.695Z,58.79
2019-01-18T16:42:36.126Z,58.79
2019-01-18T16:45:11.031Z,58.93
2019-01-18T16:47:45.654Z,59.25
2019-01-18T16:50:19.129Z,59.36
2019-01-18T16:52:52.302Z,58.79
2019-01-18T16:55:27.864Z,58.75
2019-01-18T16:58:01.496Z,59.39
2019-01-18T17:00:38.662Z,60.18
2019-01-18T17:03:13.187Z,59.78
2019-01-18T17:05:47.658Z,59.94
2019-01-18T17:08:21.614Z,60.97
2019-01-18T17:10:54.955Z,61.69
2019-01-18T17:13:31.285Z,61.43
2019-01-18T17:16:06.178Z,61.32
2019-01-18T17:18:40.594Z,61.19
2019-01-18T17:21:20.804Z,61.18
2019-01-18T17:23:54.302Z,61.68
2019-01-18T17:26:27.822Z,61.62
2019-01-18T17:29:01.880Z,61.61
2019-01-18T17:31:36.730Z,61.46
2019-01-18T17:34:09.521Z,60.92
2019-01-18T17:36:59.390Z,61.20
2019-01-18T17:39:48.843Z,61.21
2019-01-18T17:43:14.255Z,60.85
2019-01-18T17:46:05.035Z,61.11
2019-01-18T17:49:21.152Z,61.20
2019-01-18T17:52:48.013Z,61.10
2019-01-18T17:55:42.817Z,60.63
2019-01-18T17:59:02.695Z,61.06
2019-01-18T18:01:48.226Z,61.40
2019-01-18T18:04:55.237Z,62.06
2019-01-18T18:08:02.029Z,61.30
2019-01-18T18:11:21.659Z,60.72
2019-01-18T18:14:37.775Z,61.69
2019-01-18T18:17:24.548Z,61.71
2019-01-18T18:20:32.491Z,63.04
2019-01-18T18:23:33.931Z,63.28
2019-01-18T18:26:50.626Z,62.92
2019-01-18T18:30:20.044Z,62.08
2019-01-18T18:33:16.146Z,62.06
2019-01-18T18:36:32.725Z,62.79
2019-01-18T18:39:43.360Z,62.33
2019-01-18T18:42:47.701Z,62.19
2019-01-18T18:45:58.699Z,61.96
2019-01-18T18:49:12.973Z,61.50
2019-01-18T18:52:24.226Z,60.93
2019-01-18T18:55:55.636Z,60.51
2019-01-18T18:59:13.595Z,62.09
2019-01-18T19:02:13.795Z,62.31
2019-01-18T19:05:27.771Z,61.54
2019-01-18T19:08:38.467Z,61.39
2019-01-18T19:11:49.161Z,62.31
2019-01-18T19:15:11.933Z,61.35
2019-01-18T19:18:07.263Z,62.62
2019-01-18T19:21:02.334Z,62.84
2019-01-18T19:24:15.525Z,63.67
2019-01-18T19:27:20.235Z,63.12
2019-01-18T19:30:20.848Z,63.54
2019-01-18T19:33:28.556Z,63.63
2019-01-18T19:36:27.467Z,63.47
2019-01-18T19:39:32.375Z,63.25
2019-01-18T19:42:37.079Z,63.86
2019-01-18T19:45:24.101Z,64.73
2019-01-18T19:48:38.445Z,64.40
2019-01-18T19:51:50.870Z,63.87
2019-01-18T19:55:09.228Z,63.73
2019-01-18T19:58:22.270Z,63.59
2019-01-18T20:01:34.284Z,64.27
2019-01-18T20:04:40.542Z,64.22
2019-01-18T20:07:38.805Z,64.80
2019-01-18T20:10:43.239Z,64.79
2019-01-18T20:13:56.168Z,64.48
2019-01-18T20:17:02.961Z,65.24
2019-01-18T20:20:04.791Z,64.81
2019-01-18T20:22:49.577Z,64.90
2019-01-18T20:25:36.346Z,65.13
2019-01-18T20:28:22.531Z,65.20
2019-01-18T20:31:07.221Z,64.44
2019-01-18T20:34:39.771Z,64.52
2019-01-18T20:37:25.420Z,64.68
2019-01-18T20:40:28.017Z,65.53
2019-01-18T20:43:40.276Z,65.49
2019-01-18T20:46:41.438Z,65.22
2019-01-18T20:49:42.231Z,64.94
2019-01-18T20:52:55.772Z,65.03
2019-01-18T20:56:06.901Z,65.28
2019-01-18T20:59:05.581Z,64.88
2019-01-18T21:02:07.900Z,64.79
2019-01-18T21:05:01.453Z,65.08
2019-01-18T21:07:53.900Z,64.81
2019-01-18T21:10:48.064Z,65.23
2019-01-18T21:14:16.583Z,65.30
2019-01-18T21:17:33.089Z,65.33
2019-01-18T21:20:52.917Z,64.66
2019-01-18T21:23:38.788Z,64.45
2019-01-18T21:26:25.002Z,64.94
2019-01-18T21:29:24.021Z,66.07
2019-01-18T21:32:35.403Z,65.33
2019-01-18T21:35:44.351Z,64.46
2019-01-18T21:39:09.897Z,64.56
2019-01-18T21:42:13.889Z,64.83
2019-01-18T21:45:04.286Z,64.97
2019-01-18T21:47:56.571Z,64.27
2019-01-18T21:51:11.357Z,64.19
2019-01-18T21:54:14.487Z,63.87
2019-01-18T21:57:27.857Z,64.16
2019-01-18T22:00:31.309Z,64.13
2019-01-18T22:03:34.648Z,64.37
2019-01-18T22:06:32.499Z,63.97
2019-01-18T22:09:36.230Z,64.00
2019-01-18T22:12:39.416Z,64.30
2019-01-18T22:15:55.528Z,64.04
2019-01-18T22:18:55.599Z,63.62
2019-01-18T22:22:02.752Z,63.20
2019-01-18T22:25:16.184Z,63.50
2019-01-18T22:28:29.920Z,63.46
2019-01-18T22:31:53.387Z,63.48
2019-01-18T22:35:00.593Z,63.94
2019-01-18T22:37:55.093Z,64.55
2019-01-18T22:41:18.526Z,64.88
2019-01-18T22:44:14.564Z,66.12
2019-01-18T22:47:22.660Z,65.01
2019-01-18T22:50:22.725Z,64.84
2019-01-18T22:53:23.151Z,64.31
2019-01-18T22:56:40.229Z,64.62
2019-01-18T22:59:54.760Z,64.48
2019-01-18T23:02:53.833Z,64.09
2019-01-18T23:06:04.750Z,64.13
2019-01-18T23:09:09.633Z,65.55
2019-01-18T23:12:07.800Z,64.85
2019-01-18T23:15:20.070Z,64.00
2019-01-18T23:18:17.640Z,63.76
2019-01-18T23:21:17.539Z,64.34
2019-01-18T23:24:02.788Z,64.11
2019-01-18T23:26:48.685Z,63.64
2019-01-18T23:29:43.515Z,63.37
2019-01-18T23:32:29.491Z,63.03
2019-01-18T23:35:21.070Z,63.15
2019-01-18T23:38:39.044Z,63.18
2019-01-18T23:41:49.176Z,63.26
2019-01-18T23:44:56.323Z,63.63
2019-01-18T23:48:04.140Z,64.24
2019-01-18T23:50:53.513Z,64.78
2019-01-18T23:53:44.502Z,64.73
2019-01-18T23:56:39.288Z,64.98
2019-01-18T23:59:39.203Z,65.16
